createdAt,value
2023-02-01T00:02:24.693Z,6.18
2023-02-01T00:04:51.113Z,6.57
2023-02-01T00:07:17.487Z,6.55
2023-02-01T00:09:43.864Z,6.90
2023-02-01T00:12:10.254Z,6.57
2023-02-01T00:14:39.395Z,6.57
2023-02-01T00:17:08.440Z,7.07
2023-02-01T00:19:35.848Z,7.28
2023-02-01T00:22:02.195Z,7.35
2023-02-01T00:24:28.692Z,7.45
2023-02-01T00:26:55.188Z,7.90
2023-02-01T00:29:21.628Z,7.57
2023-02-01T00:31:50.144Z,8.07
2023-02-01T00:34:17.585Z,7.72
2023-02-01T00:36:44.541Z,7.97
2023-02-01T00:39:11.614Z,7.40
2023-02-01T00:41:38.018Z,7.97
2023-02-01T00:44:04.597Z,7.60
2023-02-01T00:46:31.302Z,8.38
2023-02-01T00:48:57.783Z,8.05
2023-02-01T00:51:27.424Z,7.53
2023-02-01T00:53:54.170Z,7.03
2023-02-01T00:56:20.941Z,6.72
2023-02-01T00:58:47.377Z,6.70
2023-02-01T01:01:19.421Z,7.47
2023-02-01T01:03:48.198Z,6.75
2023-02-01T01:06:20.896Z,6.93
2023-02-01T01:08:48.595Z,7.13
2023-02-01T01:11:19.591Z,7.25
2023-02-01T01:13:50.226Z,7.57
2023-02-01T01:16:17.113Z,7.10
2023-02-01T01:18:43.975Z,6.78
2023-02-01T01:21:13.644Z,8.20
2023-02-01T01:23:40.099Z,7.22
2023-02-01T01:26:08.771Z,6.78
2023-02-01T01:28:35.524Z,6.78
2023-02-01T01:31:02.383Z,6.78
2023-02-01T01:33:28.807Z,7.00
2023-02-01T01:35:55.251Z,7.25
2023-02-01T01:38:21.619Z,7.18
2023-02-01T01:40:50.629Z,6.93
2023-02-01T01:43:18.564Z,7.20
2023-02-01T01:45:44.952Z,7.65
2023-02-01T01:48:16.043Z,7.38
2023-02-01T01:50:50.149Z,7.57
2023-02-01T01:53:21.624Z,7.32
2023-02-01T01:55:49.247Z,7.88
2023-02-01T01:58:19.333Z,7.82
2023-02-01T02:00:47.125Z,8.05
2023-02-01T02:03:21.663Z,8.48
2023-02-01T02:05:50.088Z,8.10
2023-02-01T02:08:21.601Z,8.18
2023-02-01T02:11:00.960Z,8.63
2023-02-01T02:13:41.356Z,7.68
2023-02-01T02:16:34.952Z,8.38
2023-02-01T02:19:38.954Z,8.05
2023-02-01T02:22:20.270Z,8.10
2023-02-01T02:25:14.466Z,8.50
2023-02-01T02:27:59.451Z,8.77
2023-02-01T02:30:35.670Z,7.65
2023-02-01T02:33:13.098Z,7.68
2023-02-01T02:36:02.768Z,7.90
2023-02-01T02:38:59.778Z,7.40
2023-02-01T02:42:10.003Z,7.63
2023-02-01T02:45:09.938Z,7.85
2023-02-01T02:47:47.460Z,7.22
2023-02-01T02:50:38.838Z,6.65
2023-02-01T02:53:30.667Z,7.03
2023-02-01T02:56:15.828Z,6.78
2023-02-01T02:59:02.741Z,6.65
2023-02-01T03:01:48.580Z,6.35
2023-02-01T03:04:18.510Z,6.35
2023-02-01T03:06:46.276Z,6.05
2023-02-01T03:09:22.273Z,5.85
2023-02-01T03:12:23.287Z,6.10
2023-02-01T03:14:53.607Z,5.82
2023-02-01T03:17:23.512Z,5.40
2023-02-01T03:19:52.571Z,6.13
2023-02-01T03:22:22.278Z,5.43
2023-02-01T03:24:52.716Z,5.40
2023-02-01T03:27:23.774Z,5.25
2023-02-01T03:29:57.702Z,4.88
2023-02-01T03:34:50.835Z,5.43
2023-02-01T03:37:23.854Z,5.75
2023-02-01T03:39:55.556Z,5.15
2023-02-01T03:42:29.496Z,4.65
2023-02-01T03:47:36.751Z,5.35
2023-02-01T03:50:24.606Z,5.28
2023-02-01T03:53:01.466Z,5.07
2023-02-01T03:55:28.625Z,6.07
2023-02-01T03:57:58.476Z,5.70
2023-02-01T04:00:26.492Z,6.15
2023-02-01T04:02:53.860Z,5.70
2023-02-01T04:05:21.519Z,5.60
2023-02-01T04:07:47.857Z,5.82
2023-02-01T04:10:14.275Z,5.65
2023-02-01T04:12:40.739Z,6.60
2023-02-01T04:15:08.273Z,5.72
2023-02-01T04:17:34.908Z,6.45
2023-02-01T04:20:01.266Z,6.03
2023-02-01T04:22:27.633Z,6.13
2023-02-01T04:24:53.979Z,6.57
2023-02-01T04:27:20.355Z,5.63
2023-02-01T04:29:46.700Z,5.82
2023-02-01T04:32:13.082Z,5.63
2023-02-01T04:34:39.427Z,5.60
2023-02-01T04:37:05.810Z,5.47
2023-02-01T04:39:32.144Z,5.22
2023-02-01T04:41:58.513Z,5.78
2023-02-01T04:44:24.896Z,5.60
2023-02-01T04:46:51.322Z,6.35
2023-02-01T04:49:17.926Z,5.80
2023-02-01T04:51:44.555Z,5.40
2023-02-01T04:54:13.727Z,5.65
2023-02-01T04:56:40.582Z,5.57
2023-02-01T04:59:07.036Z,6.18
2023-02-01T05:01:33.517Z,5.53
2023-02-01T05:04:00.016Z,6.75
2023-02-01T05:06:26.352Z,5.93
2023-02-01T05:08:52.699Z,5.45
2023-02-01T05:11:37.557Z,5.60
2023-02-01T05:14:03.881Z,5.20
2023-02-01T05:16:30.307Z,5.85
2023-02-01T05:18:56.646Z,5.72
2023-02-01T05:21:23.169Z,5.63
2023-02-01T05:24:07.898Z,5.90
2023-02-01T05:26:34.510Z,5.55
2023-02-01T05:29:00.906Z,4.82
2023-02-01T05:31:27.521Z,5.25
2023-02-01T05:33:53.923Z,4.70
2023-02-01T05:36:20.317Z,5.03
2023-02-01T05:38:46.705Z,4.63
2023-02-01T05:41:13.110Z,4.97
2023-02-01T05:43:39.472Z,4.82
2023-02-01T05:46:05.889Z,5.65
2023-02-01T05:48:32.465Z,5.10
2023-02-01T05:50:59.151Z,4.43
2023-02-01T05:53:25.481Z,4.30
2023-02-01T05:55:51.896Z,5.10
2023-02-01T05:58:18.325Z,4.82
2023-02-01T06:00:44.675Z,4.55
2023-02-01T06:03:11.022Z,4.13
2023-02-01T06:05:37.907Z,4.35
2023-02-01T06:08:04.476Z,4.80
2023-02-01T06:10:31.031Z,4.28
2023-02-01T06:12:57.397Z,5.13
2023-02-01T06:15:23.831Z,4.32
2023-02-01T06:17:50.294Z,4.97
2023-02-01T06:20:17.265Z,3.90
2023-02-01T06:22:43.591Z,4.22
2023-02-01T06:25:11.193Z,4.70
2023-02-01T06:27:37.881Z,4.32
2023-02-01T06:30:06.671Z,4.50
2023-02-01T06:32:33.357Z,4.60
2023-02-01T06:35:01.432Z,5.18
2023-02-01T06:37:30.196Z,4.43
2023-02-01T06:39:56.541Z,4.55
2023-02-01T06:42:25.654Z,4.15
2023-02-01T06:44:52.347Z,4.75
2023-02-01T06:47:18.707Z,4.75
2023-02-01T06:49:45.115Z,4.60
2023-02-01T06:52:11.479Z,5.22
2023-02-01T06:54:38.314Z,5.05
2023-02-01T06:57:05.052Z,4.43
2023-02-01T06:59:31.401Z,4.50
2023-02-01T07:01:57.772Z,4.68
2023-02-01T07:04:24.181Z,5.03
2023-02-01T07:06:50.563Z,7.55
2023-02-01T07:09:18.666Z,6.47
2023-02-01T07:11:45.093Z,5.32
2023-02-01T07:14:12.070Z,4.60
2023-02-01T07:16:38.518Z,4.45
2023-02-01T07:19:05.196Z,4.57
2023-02-01T07:21:31.691Z,4.50
2023-02-01T07:23:59.956Z,4.88
2023-02-01T07:26:26.721Z,5.32
2023-02-01T07:28:53.300Z,4.85
2023-02-01T07:31:22.409Z,4.25
2023-02-01T07:33:52.494Z,4.65
2023-02-01T07:36:19.457Z,4.93
2023-02-01T07:38:47.949Z,4.18
2023-02-01T07:41:14.564Z,3.80
2023-02-01T07:43:40.962Z,3.92
2023-02-01T07:46:08.026Z,3.88
2023-02-01T07:48:35.048Z,3.97
2023-02-01T07:51:07.007Z,3.55
2023-02-01T07:53:34.633Z,4.05
2023-02-01T07:56:01.590Z,4.40
2023-02-01T07:58:28.543Z,3.85
2023-02-01T08:01:14.365Z,3.80
2023-02-01T08:03:41.515Z,3.92
2023-02-01T08:06:08.069Z,4.05
2023-02-01T08:08:34.744Z,4.40
2023-02-01T08:11:02.369Z,4.47
2023-02-01T08:13:29.145Z,4.93
2023-02-01T08:15:59.860Z,5.28
2023-02-01T08:18:26.582Z,4.00
2023-02-01T08:20:53.109Z,3.60
2023-02-01T08:23:20.139Z,6.45
2023-02-01T08:25:47.159Z,4.43
2023-02-01T08:28:13.925Z,4.10
2023-02-01T08:30:40.899Z,3.97
2023-02-01T08:33:09.851Z,3.92
2023-02-01T08:35:43.359Z,4.18
2023-02-01T08:38:10.322Z,4.00
2023-02-01T08:40:36.800Z,3.80
2023-02-01T08:43:03.184Z,3.83
2023-02-01T08:45:30.899Z,3.70
2023-02-01T08:47:57.844Z,3.60
2023-02-01T08:50:25.805Z,3.53
2023-02-01T08:52:53.319Z,3.42
2023-02-01T08:55:20.416Z,3.33
2023-02-01T08:57:46.857Z,3.83
2023-02-01T09:00:16.017Z,3.50
2023-02-01T09:02:43.006Z,3.88
2023-02-01T09:05:09.565Z,3.53
2023-02-01T09:07:36.054Z,4.38
2023-02-01T09:10:03.051Z,3.33
2023-02-01T09:12:30.363Z,2.75
2023-02-01T09:14:57.854Z,3.33
2023-02-01T09:17:24.308Z,3.20
2023-02-01T09:19:50.729Z,3.67
2023-02-01T09:22:17.396Z,3.53
2023-02-01T09:24:43.863Z,3.53
2023-02-01T09:27:10.685Z,3.13
2023-02-01T09:29:37.119Z,3.35
2023-02-01T09:32:04.684Z,3.55
2023-02-01T09:34:31.563Z,2.95
2023-02-01T09:36:58.091Z,2.90
2023-02-01T09:39:24.764Z,3.25
2023-02-01T09:42:06.288Z,3.85
2023-02-01T09:44:53.030Z,3.40
2023-02-01T09:47:21.769Z,3.20
2023-02-01T09:49:56.376Z,3.58
2023-02-01T09:52:28.808Z,3.38
2023-02-01T09:55:01.740Z,2.97
2023-02-01T09:57:44.269Z,3.35
2023-02-01T10:00:37.889Z,3.72
2023-02-01T10:03:04.881Z,3.00
2023-02-01T10:06:16.422Z,3.50
2023-02-01T10:09:16.240Z,3.08
2023-02-01T10:11:59.962Z,3.15
2023-02-01T10:14:33.949Z,2.88
2023-02-01T10:20:04.501Z,2.67
2023-02-01T10:23:23.220Z,3.17
2023-02-01T10:25:57.557Z,2.60
2023-02-01T10:28:26.326Z,3.35
2023-02-01T10:30:56.404Z,3.70
2023-02-01T10:33:28.631Z,3.30
2023-02-01T10:36:00.542Z,3.05
2023-02-01T10:38:31.728Z,3.20
2023-02-01T10:41:13.633Z,3.50
2023-02-01T10:43:40.402Z,3.13
2023-02-01T10:46:08.267Z,3.17
2023-02-01T10:48:35.689Z,2.85
2023-02-01T10:51:07.872Z,2.78
2023-02-01T10:53:56.911Z,3.10
2023-02-01T10:56:25.481Z,3.22
2023-02-01T10:58:52.777Z,3.20
2023-02-01T11:01:23.019Z,3.33
2023-02-01T11:04:00.096Z,3.35
2023-02-01T11:06:38.765Z,3.45
2023-02-01T11:09:08.207Z,2.92
2023-02-01T11:11:54.223Z,3.42
2023-02-01T11:14:21.506Z,2.70
2023-02-01T11:16:51.026Z,2.58
2023-02-01T11:19:18.447Z,2.80
2023-02-01T11:21:45.919Z,3.25
2023-02-01T11:24:25.069Z,2.83
2023-02-01T11:26:53.834Z,3.20
2023-02-01T11:29:24.085Z,2.85
2023-02-01T11:31:51.042Z,2.33
2023-02-01T11:34:20.732Z,3.03
2023-02-01T11:36:48.357Z,2.80
2023-02-01T11:39:26.568Z,2.75
2023-02-01T11:42:06.213Z,2.80
2023-02-01T11:44:38.204Z,2.65
2023-02-01T11:47:26.940Z,2.40
2023-02-01T11:49:58.920Z,3.47
2023-02-01T11:52:34.087Z,2.78
2023-02-01T11:55:18.280Z,2.38
2023-02-01T11:58:03.999Z,2.80
2023-02-01T12:00:54.592Z,3.40
2023-02-01T12:03:44.178Z,2.60
2023-02-01T12:06:23.972Z,3.10
2023-02-01T12:09:23.937Z,2.28
2023-02-01T12:11:59.333Z,2.55
2023-02-01T12:14:42.001Z,3.40
2023-02-01T12:17:14.015Z,3.05
2023-02-01T12:19:56.161Z,2.55
2023-02-01T12:23:11.843Z,3.03
2023-02-01T12:26:03.694Z,2.85
2023-02-01T12:29:05.327Z,3.75
2023-02-01T12:31:50.382Z,3.35
2023-02-01T12:34:48.222Z,2.83
2023-02-01T12:37:28.867Z,2.83
2023-02-01T12:40:18.507Z,3.10
2023-02-01T12:42:53.742Z,3.20
2023-02-01T12:45:35.579Z,2.30
2023-02-01T12:48:16.563Z,3.03
2023-02-01T12:50:48.153Z,2.90
2023-02-01T12:53:25.512Z,2.85
2023-02-01T12:55:55.433Z,3.38
2023-02-01T12:58:41.407Z,2.65
2023-02-01T13:01:30.811Z,2.83
2023-02-01T13:04:08.525Z,2.47
2023-02-01T13:06:39.856Z,2.88
2023-02-01T13:09:20.169Z,2.75
2023-02-01T13:11:48.410Z,2.80
2023-02-01T13:14:32.958Z,2.40
2023-02-01T13:17:06.338Z,2.20
2023-02-01T13:19:55.778Z,3.03
2023-02-01T13:22:39.636Z,2.80
2023-02-01T13:25:14.393Z,2.78
2023-02-01T13:27:41.073Z,2.65
2023-02-01T13:30:22.017Z,3.15
2023-02-01T13:33:53.512Z,3.15
2023-02-01T13:36:36.983Z,2.33
2023-02-01T13:39:45.849Z,2.67
2023-02-01T13:42:19.855Z,2.60
2023-02-01T13:47:27.777Z,2.47
2023-02-01T13:49:56.494Z,2.97
2023-02-01T13:52:33.813Z,2.67
2023-02-01T13:55:24.979Z,2.80
2023-02-01T13:58:00.285Z,2.85
2023-02-01T14:00:31.386Z,2.60
2023-02-01T14:03:00.646Z,2.30
2023-02-01T14:05:27.064Z,2.88
2023-02-01T14:08:05.635Z,2.60
2023-02-01T14:10:51.561Z,2.28
2023-02-01T14:13:38.887Z,3.20
2023-02-01T14:16:05.315Z,2.60
2023-02-01T14:18:34.397Z,3.10
2023-02-01T14:21:34.429Z,2.70
2023-02-01T14:24:04.174Z,3.10
2023-02-01T14:26:39.346Z,2.38
2023-02-01T14:29:33.252Z,3.20
2023-02-01T14:32:21.354Z,2.10
2023-02-01T14:34:47.682Z,2.40
2023-02-01T14:37:19.648Z,2.38
2023-02-01T14:39:47.780Z,2.78
2023-02-01T14:42:30.658Z,2.65
2023-02-01T14:45:23.428Z,2.53
2023-02-01T14:48:06.355Z,3.05
2023-02-01T14:50:38.987Z,2.72
2023-02-01T14:53:14.133Z,3.13
2023-02-01T14:55:49.428Z,2.80
2023-02-01T14:58:47.311Z,2.45
2023-02-01T15:01:23.470Z,3.38
2023-02-01T15:03:55.890Z,2.67
2023-02-01T15:06:32.194Z,3.17
2023-02-01T15:09:02.933Z,2.88
2023-02-01T15:11:29.507Z,2.35
2023-02-01T15:13:57.084Z,2.63
2023-02-01T15:16:25.948Z,2.55
2023-02-01T15:19:09.744Z,3.03
2023-02-01T15:21:46.768Z,2.80
2023-02-01T15:24:21.855Z,2.70
2023-02-01T15:26:48.859Z,3.35
2023-02-01T15:29:15.334Z,2.10
2023-02-01T15:31:45.485Z,2.55
2023-02-01T15:34:12.364Z,2.67
2023-02-01T15:36:38.894Z,2.75
2023-02-01T15:39:23.771Z,2.72
2023-02-01T15:42:12.120Z,2.03
2023-02-01T15:44:43.640Z,2.67
2023-02-01T15:47:18.593Z,2.63
2023-02-01T15:49:47.763Z,3.33
2023-02-01T15:52:25.077Z,2.70
2023-02-01T15:54:54.535Z,2.55
2023-02-01T15:57:31.014Z,2.40
2023-02-01T16:00:08.867Z,3.28
2023-02-01T16:02:39.545Z,3.10
2023-02-01T16:05:23.352Z,2.60
2023-02-01T16:07:58.509Z,3.03
2023-02-01T16:10:28.143Z,2.30
2023-02-01T16:12:59.479Z,2.70
2023-02-01T16:15:26.220Z,2.78
2023-02-01T16:17:52.790Z,3.58
2023-02-01T16:20:19.178Z,2.40
2023-02-01T16:22:45.545Z,3.05
2023-02-01T16:25:12.126Z,2.80
2023-02-01T16:27:38.455Z,3.17
2023-02-01T16:30:05.224Z,2.20
2023-02-01T16:32:31.680Z,2.83
2023-02-01T16:34:58.470Z,2.50
2023-02-01T16:37:25.823Z,2.45
2023-02-01T16:39:52.583Z,2.42
2023-02-01T16:42:18.967Z,2.58
2023-02-01T16:44:45.401Z,2.72
2023-02-01T16:47:23.296Z,2.63
2023-02-01T16:49:50.195Z,2.70
2023-02-01T16:52:22.674Z,2.75
2023-02-01T16:54:49.089Z,3.17
2023-02-01T16:57:17.590Z,2.47
2023-02-01T16:59:45.529Z,3.28
2023-02-01T17:02:17.680Z,2.83
2023-02-01T17:04:44.308Z,2.53
2023-02-01T17:07:13.838Z,2.50
2023-02-01T17:09:40.477Z,2.38
2023-02-01T17:12:07.007Z,2.33
2023-02-01T17:14:37.525Z,2.47
2023-02-01T17:17:05.403Z,3.65
2023-02-01T17:19:33.105Z,2.67
2023-02-01T17:21:59.698Z,2.72
2023-02-01T17:24:39.208Z,2.33
2023-02-01T17:27:14.906Z,2.50
2023-02-01T17:29:42.386Z,2.90
2023-02-01T17:32:16.393Z,2.97
2023-02-01T17:37:23.361Z,2.83
2023-02-01T17:39:55.536Z,3.22
2023-02-01T17:42:23.925Z,3.00
2023-02-01T17:45:00.168Z,2.00
2023-02-01T17:47:26.602Z,3.17
2023-02-01T17:49:56.476Z,2.88
2023-02-01T17:52:24.516Z,2.90
2023-02-01T17:54:53.874Z,2.97
2023-02-01T17:57:20.683Z,3.17
2023-02-01T17:59:47.124Z,2.80
2023-02-01T18:02:21.990Z,3.45
2023-02-01T18:04:49.371Z,3.22
2023-02-01T18:07:16.262Z,3.42
2023-02-01T18:09:42.647Z,3.40
2023-02-01T18:12:16.194Z,2.45
2023-02-01T18:14:42.627Z,2.97
2023-02-01T18:17:09.260Z,3.17
2023-02-01T18:19:35.701Z,2.90
2023-02-01T18:22:02.498Z,3.28
2023-02-01T18:24:30.937Z,3.00
2023-02-01T18:26:59.516Z,3.17
2023-02-01T18:29:26.025Z,3.30
2023-02-01T18:31:52.813Z,3.33
2023-02-01T18:34:22.576Z,3.17
2023-02-01T18:36:49.722Z,2.35
2023-02-01T18:39:16.743Z,2.97
2023-02-01T18:41:44.864Z,3.42
2023-02-01T18:44:15.914Z,3.20
2023-02-01T18:46:42.645Z,2.47
2023-02-01T18:49:09.556Z,3.03
2023-02-01T18:51:35.873Z,2.75
2023-02-01T18:54:02.255Z,3.95
2023-02-01T18:56:28.642Z,3.42
2023-02-01T18:59:18.471Z,2.90
2023-02-01T19:01:45.187Z,3.75
2023-02-01T19:04:19.598Z,3.13
2023-02-01T19:06:52.226Z,3.83
2023-02-01T19:09:21.902Z,3.67
2023-02-01T19:11:51.243Z,3.20
2023-02-01T19:14:20.714Z,3.08
2023-02-01T19:16:49.797Z,3.75
2023-02-01T19:19:16.291Z,3.20
2023-02-01T19:21:42.750Z,3.60
2023-02-01T19:24:09.538Z,3.83
2023-02-01T19:26:41.497Z,3.17
2023-02-01T19:29:07.917Z,3.22
2023-02-01T19:31:34.456Z,2.95
2023-02-01T19:34:01.373Z,3.58
2023-02-01T19:36:27.931Z,4.05
2023-02-01T19:38:54.382Z,4.10
2023-02-01T19:41:20.860Z,3.50
2023-02-01T19:43:47.301Z,3.10
2023-02-01T19:46:13.903Z,3.58
2023-02-01T19:48:40.351Z,3.28
2023-02-01T19:51:06.794Z,3.25
2023-02-01T19:53:33.210Z,2.90
2023-02-01T19:56:01.645Z,3.08
2023-02-01T19:58:28.235Z,2.83
2023-02-01T20:00:54.678Z,3.38
2023-02-01T20:03:21.891Z,2.97
2023-02-01T20:05:52.530Z,2.63
2023-02-01T20:08:19.388Z,3.10
2023-02-01T20:10:45.815Z,2.50
2023-02-01T20:13:12.688Z,3.42
2023-02-01T20:15:39.146Z,3.22
2023-02-01T20:21:00.302Z,2.80
2023-02-01T20:23:27.674Z,3.10
2023-02-01T20:26:01.361Z,2.50
2023-02-01T20:28:27.765Z,2.38
2023-02-01T20:30:54.160Z,2.83
2023-02-01T20:33:20.719Z,2.70
2023-02-01T20:35:47.793Z,2.47
2023-02-01T20:38:14.876Z,2.22
2023-02-01T20:40:41.227Z,2.80
2023-02-01T20:43:08.711Z,3.10
2023-02-01T20:45:39.360Z,2.92
2023-02-01T20:48:06.031Z,2.50
2023-02-01T20:50:32.553Z,2.80
2023-02-01T20:52:58.986Z,2.50
2023-02-01T20:55:26.214Z,2.70
2023-02-01T20:57:53.557Z,2.85
2023-02-01T21:00:22.512Z,2.70
2023-02-01T21:02:49.549Z,2.35
2023-02-01T21:05:16.638Z,2.88
2023-02-01T21:07:43.505Z,3.10
2023-02-01T21:10:10.906Z,2.78
2023-02-01T21:12:37.959Z,2.55
2023-02-01T21:15:05.508Z,2.35
2023-02-01T21:17:32.755Z,2.45
2023-02-01T21:19:59.568Z,2.38
2023-02-01T21:22:26.367Z,3.17
2023-02-01T21:24:52.741Z,2.88
2023-02-01T21:27:19.141Z,2.58
2023-02-01T21:29:45.506Z,2.85
2023-02-01T21:32:11.841Z,2.70
2023-02-01T21:34:38.203Z,2.50
2023-02-01T21:37:04.735Z,2.55
2023-02-01T21:39:31.073Z,3.15
2023-02-01T21:42:17.464Z,3.35
2023-02-01T21:44:48.444Z,2.70
2023-02-01T21:47:17.211Z,3.40
2023-02-01T21:49:45.369Z,2.13
2023-02-01T21:52:12.552Z,3.30
2023-02-01T21:54:39.214Z,2.92
2023-02-01T21:57:12.481Z,2.60
2023-02-01T21:59:40.408Z,2.83
2023-02-01T22:02:16.119Z,3.00
2023-02-01T22:04:43.103Z,3.35
2023-02-01T22:07:10.432Z,2.97
2023-02-01T22:09:37.453Z,2.75
2023-02-01T22:12:04.196Z,3.03
2023-02-01T22:14:30.558Z,2.88
2023-02-01T22:16:57.089Z,2.90
2023-02-01T22:19:23.534Z,2.88
2023-02-01T22:21:50.087Z,3.20
2023-02-01T22:24:18.130Z,2.47
2023-02-01T22:26:44.666Z,3.20
2023-02-01T22:29:13.049Z,3.30
2023-02-01T22:31:39.883Z,2.33
2023-02-01T22:34:06.442Z,2.58
2023-02-01T22:36:32.911Z,3.20
2023-02-01T22:38:59.391Z,2.72
2023-02-01T22:41:26.008Z,3.03
2023-02-01T22:43:52.676Z,2.90
2023-02-01T22:46:25.175Z,2.83
2023-02-01T22:48:51.970Z,3.03
2023-02-01T22:51:24.025Z,2.92
2023-02-01T22:53:56.716Z,3.15
2023-02-01T22:56:31.540Z,2.47
2023-02-01T22:58:59.961Z,2.65
2023-02-01T23:01:26.656Z,2.58
2023-02-01T23:03:57.527Z,3.47
2023-02-01T23:06:24.082Z,2.58
2023-02-01T23:08:54.822Z,2.90
2023-02-01T23:11:21.234Z,2.35
2023-02-01T23:13:47.965Z,2.78
2023-02-01T23:16:14.521Z,2.63
2023-02-01T23:18:41.313Z,2.40
2023-02-01T23:21:10.553Z,2.63
2023-02-01T23:23:37.401Z,2.58
2023-02-01T23:26:04.589Z,2.40
2023-02-01T23:28:32.101Z,2.25
2023-02-01T23:30:58.819Z,2.75
2023-02-01T23:33:26.227Z,2.30
2023-02-01T23:36:00.968Z,2.40
2023-02-01T23:38:27.843Z,2.85
2023-02-01T23:41:02.709Z,2.22
2023-02-01T23:43:48.244Z,2.53
2023-02-01T23:46:18.070Z,2.75
2023-02-01T23:48:45.694Z,3.22
2023-02-01T23:51:15.032Z,2.38
2023-02-01T23:53:41.493Z,2.40
2023-02-01T23:56:08.240Z,2.30
2023-02-01T23:58:34.950Z,2.28
